sensor_id;sensor_type;location;lat;lon;timestamp;P1;durP1;ratioP1;P2;durP2;ratioP2
64957;SDS011;51486;50.232;19.208;2023-09-30T00:00:04;17.40;;;7.50;;
64957;SDS011;51486;50.232;19.208;2023-09-30T00:02:33;19.43;;;8.47;;
64957;SDS011;51486;50.232;19.208;2023-09-30T00:04:58;12.00;;;7.20;;
64957;SDS011;51486;50.232;19.208;2023-09-30T00:07:24;12.00;;;7.57;;
64957;SDS011;51486;50.232;19.208;2023-09-30T00:09:49;13.37;;;7.07;;
64957;SDS011;51486;50.232;19.208;2023-09-30T00:12:16;15.03;;;7.07;;
64957;SDS011;51486;50.232;19.208;2023-09-30T00:14:42;15.27;;;6.97;;
64957;SDS011;51486;50.232;19.208;2023-09-30T00:17:07;11.43;;;6.87;;
64957;SDS011;51486;50.232;19.208;2023-09-30T00:19:33;14.80;;;6.67;;
64957;SDS011;51486;50.232;19.208;2023-09-30T00:21:58;13.90;;;7.00;;
64957;SDS011;51486;50.232;19.208;2023-09-30T00:24:25;10.73;;;5.50;;
64957;SDS011;51486;50.232;19.208;2023-09-30T00:26:51;8.60;;;5.37;;
64957;SDS011;51486;50.232;19.208;2023-09-30T00:29:16;16.73;;;6.90;;
64957;SDS011;51486;50.232;19.208;2023-09-30T00:31:43;13.27;;;6.77;;
64957;SDS011;51486;50.232;19.208;2023-09-30T00:34:09;16.97;;;6.53;;
64957;SDS011;51486;50.232;19.208;2023-09-30T00:36:34;13.13;;;6.03;;
64957;SDS011;51486;50.232;19.208;2023-09-30T00:39:00;15.87;;;7.23;;
64957;SDS011;51486;50.232;19.208;2023-09-30T00:41:25;16.17;;;8.00;;
64957;SDS011;51486;50.232;19.208;2023-09-30T00:43:50;11.03;;;5.97;;
64957;SDS011;51486;50.232;19.208;2023-09-30T00:48:50;15.90;;;7.03;;
64957;SDS011;51486;50.232;19.208;2023-09-30T00:51:16;16.73;;;6.57;;
64957;SDS011;51486;50.232;19.208;2023-09-30T00:53:42;13.30;;;6.60;;
64957;SDS011;51486;50.232;19.208;2023-09-30T00:56:07;15.23;;;7.07;;
64957;SDS011;51486;50.232;19.208;2023-09-30T00:58:33;13.07;;;7.20;;
64957;SDS011;51486;50.232;19.208;2023-09-30T01:01:00;18.80;;;6.53;;
64957;SDS011;51486;50.232;19.208;2023-09-30T01:03:26;10.10;;;6.40;;
64957;SDS011;51486;50.232;19.208;2023-09-30T01:05:51;14.03;;;7.03;;
64957;SDS011;51486;50.232;19.208;2023-09-30T01:08:16;24.40;;;6.77;;
64957;SDS011;51486;50.232;19.208;2023-09-30T01:10:43;16.77;;;7.37;;
64957;SDS011;51486;50.232;19.208;2023-09-30T01:13:08;17.90;;;6.67;;
64957;SDS011;51486;50.232;19.208;2023-09-30T01:15:34;14.63;;;6.93;;
64957;SDS011;51486;50.232;19.208;2023-09-30T01:18:01;15.57;;;7.83;;
64957;SDS011;51486;50.232;19.208;2023-09-30T01:20:26;13.57;;;7.40;;
64957;SDS011;51486;50.232;19.208;2023-09-30T01:22:52;12.97;;;7.13;;
64957;SDS011;51486;50.232;19.208;2023-09-30T01:25:20;14.77;;;7.53;;
64957;SDS011;51486;50.232;19.208;2023-09-30T01:27:45;15.47;;;7.93;;
64957;SDS011;51486;50.232;19.208;2023-09-30T01:30:11;9.77;;;6.70;;
64957;SDS011;51486;50.232;19.208;2023-09-30T01:32:38;15.73;;;8.80;;
64957;SDS011;51486;50.232;19.208;2023-09-30T01:35:04;14.67;;;7.87;;
64957;SDS011;51486;50.232;19.208;2023-09-30T01:37:30;21.67;;;8.90;;
64957;SDS011;51486;50.232;19.208;2023-09-30T01:39:55;16.77;;;8.60;;
64957;SDS011;51486;50.232;19.208;2023-09-30T01:42:21;17.13;;;7.93;;
64957;SDS011;51486;50.232;19.208;2023-09-30T01:44:46;13.57;;;7.93;;
64957;SDS011;51486;50.232;19.208;2023-09-30T01:47:12;16.73;;;9.47;;
64957;SDS011;51486;50.232;19.208;2023-09-30T01:49:37;16.37;;;7.73;;
64957;SDS011;51486;50.232;19.208;2023-09-30T01:52:03;12.43;;;7.17;;
64957;SDS011;51486;50.232;19.208;2023-09-30T01:54:28;15.93;;;7.83;;
64957;SDS011;51486;50.232;19.208;2023-09-30T01:56:54;16.50;;;7.93;;
64957;SDS011;51486;50.232;19.208;2023-09-30T01:59:19;12.23;;;7.70;;
64957;SDS011;51486;50.232;19.208;2023-09-30T02:01:44;16.30;;;7.30;;
64957;SDS011;51486;50.232;19.208;2023-09-30T02:04:13;17.23;;;7.83;;
64957;SDS011;51486;50.232;19.208;2023-09-30T02:06:40;11.83;;;7.33;;
64957;SDS011;51486;50.232;19.208;2023-09-30T02:09:08;17.33;;;7.73;;
64957;SDS011;51486;50.232;19.208;2023-09-30T02:11:34;11.97;;;7.00;;
64957;SDS011;51486;50.232;19.208;2023-09-30T02:14:03;16.90;;;8.17;;
64957;SDS011;51486;50.232;19.208;2023-09-30T02:16:28;15.93;;;8.07;;
64957;SDS011;51486;50.232;19.208;2023-09-30T02:18:54;16.93;;;7.07;;
64957;SDS011;51486;50.232;19.208;2023-09-30T02:21:20;17.47;;;7.67;;
64957;SDS011;51486;50.232;19.208;2023-09-30T02:23:47;16.37;;;7.00;;
64957;SDS011;51486;50.232;19.208;2023-09-30T02:26:16;14.20;;;7.50;;
64957;SDS011;51486;50.232;19.208;2023-09-30T02:28:42;16.37;;;8.43;;
64957;SDS011;51486;50.232;19.208;2023-09-30T02:31:08;12.90;;;6.73;;
64957;SDS011;51486;50.232;19.208;2023-09-30T02:33:34;18.60;;;7.77;;
64957;SDS011;51486;50.232;19.208;2023-09-30T02:36:00;15.70;;;7.93;;
64957;SDS011;51486;50.232;19.208;2023-09-30T02:38:26;14.53;;;7.63;;
64957;SDS011;51486;50.232;19.208;2023-09-30T02:40:53;16.83;;;8.30;;
64957;SDS011;51486;50.232;19.208;2023-09-30T02:43:19;15.43;;;6.80;;
64957;SDS011;51486;50.232;19.208;2023-09-30T02:45:45;12.33;;;7.40;;
64957;SDS011;51486;50.232;19.208;2023-09-30T02:48:11;21.47;;;7.60;;
64957;SDS011;51486;50.232;19.208;2023-09-30T02:50:36;16.37;;;7.13;;
64957;SDS011;51486;50.232;19.208;2023-09-30T02:53:02;13.33;;;6.33;;
64957;SDS011;51486;50.232;19.208;2023-09-30T02:55:28;11.03;;;6.27;;
64957;SDS011;51486;50.232;19.208;2023-09-30T02:57:53;19.10;;;7.33;;
64957;SDS011;51486;50.232;19.208;2023-09-30T03:00:19;13.80;;;7.23;;
64957;SDS011;51486;50.232;19.208;2023-09-30T03:02:54;16.10;;;7.77;;
64957;SDS011;51486;50.232;19.208;2023-09-30T03:05:20;17.93;;;7.07;;
64957;SDS011;51486;50.232;19.208;2023-09-30T03:07:45;11.53;;;6.60;;
64957;SDS011;51486;50.232;19.208;2023-09-30T03:10:11;13.63;;;6.93;;
64957;SDS011;51486;50.232;19.208;2023-09-30T03:12:38;13.90;;;6.70;;
64957;SDS011;51486;50.232;19.208;2023-09-30T03:15:03;10.80;;;6.70;;
64957;SDS011;51486;50.232;19.208;2023-09-30T03:17:30;12.50;;;6.13;;
64957;SDS011;51486;50.232;19.208;2023-09-30T03:19:57;14.27;;;7.10;;
64957;SDS011;51486;50.232;19.208;2023-09-30T03:22:23;11.93;;;6.57;;
64957;SDS011;51486;50.232;19.208;2023-09-30T03:24:48;17.63;;;7.23;;
64957;SDS011;51486;50.232;19.208;2023-09-30T03:27:13;12.30;;;5.57;;
64957;SDS011;51486;50.232;19.208;2023-09-30T03:29:40;11.93;;;6.57;;
64957;SDS011;51486;50.232;19.208;2023-09-30T03:32:06;13.23;;;7.33;;
64957;SDS011;51486;50.232;19.208;2023-09-30T03:34:31;17.17;;;6.67;;
64957;SDS011;51486;50.232;19.208;2023-09-30T03:36:58;18.03;;;7.03;;
64957;SDS011;51486;50.232;19.208;2023-09-30T03:39:26;17.73;;;6.47;;
64957;SDS011;51486;50.232;19.208;2023-09-30T03:41:55;12.33;;;6.73;;
64957;SDS011;51486;50.232;19.208;2023-09-30T03:44:24;12.33;;;6.57;;
64957;SDS011;51486;50.232;19.208;2023-09-30T03:46:50;16.40;;;6.90;;
64957;SDS011;51486;50.232;19.208;2023-09-30T03:49:16;16.03;;;6.47;;
64957;SDS011;51486;50.232;19.208;2023-09-30T03:51:41;9.00;;;6.00;;
64957;SDS011;51486;50.232;19.208;2023-09-30T03:54:07;10.50;;;6.47;;
64957;SDS011;51486;50.232;19.208;2023-09-30T03:56:33;13.67;;;6.20;;
64957;SDS011;51486;50.232;19.208;2023-09-30T03:58:59;14.70;;;6.90;;
64957;SDS011;51486;50.232;19.208;2023-09-30T04:01:24;15.63;;;7.73;;
64957;SDS011;51486;50.232;19.208;2023-09-30T04:03:51;22.00;;;10.20;;
64957;SDS011;51486;50.232;19.208;2023-09-30T04:06:20;28.20;;;11.70;;
64957;SDS011;51486;50.232;19.208;2023-09-30T04:08:45;46.23;;;20.20;;
64957;SDS011;51486;50.232;19.208;2023-09-30T04:11:10;51.43;;;22.10;;
64957;SDS011;51486;50.232;19.208;2023-09-30T04:13:42;48.03;;;20.17;;
64957;SDS011;51486;50.232;19.208;2023-09-30T04:16:07;47.30;;;20.33;;
64957;SDS011;51486;50.232;19.208;2023-09-30T04:18:33;35.97;;;15.03;;
64957;SDS011;51486;50.232;19.208;2023-09-30T04:20:58;23.27;;;11.17;;
64957;SDS011;51486;50.232;19.208;2023-09-30T04:23:24;15.97;;;8.83;;
64957;SDS011;51486;50.232;19.208;2023-09-30T04:25:50;20.63;;;9.37;;
64957;SDS011;51486;50.232;19.208;2023-09-30T04:28:15;18.43;;;9.50;;
64957;SDS011;51486;50.232;19.208;2023-09-30T04:30:46;18.73;;;9.27;;
64957;SDS011;51486;50.232;19.208;2023-09-30T04:33:12;20.97;;;10.13;;
64957;SDS011;51486;50.232;19.208;2023-09-30T04:35:38;15.03;;;8.63;;
64957;SDS011;51486;50.232;19.208;2023-09-30T04:38:03;18.33;;;7.00;;
64957;SDS011;51486;50.232;19.208;2023-09-30T04:40:29;12.37;;;7.67;;
64957;SDS011;51486;50.232;19.208;2023-09-30T04:42:55;15.57;;;6.70;;
64957;SDS011;51486;50.232;19.208;2023-09-30T04:45:24;17.17;;;6.27;;
64957;SDS011;51486;50.232;19.208;2023-09-30T04:47:51;17.03;;;6.57;;
64957;SDS011;51486;50.232;19.208;2023-09-30T04:50:17;12.73;;;5.40;;
64957;SDS011;51486;50.232;19.208;2023-09-30T04:52:43;16.13;;;6.20;;
64957;SDS011;51486;50.232;19.208;2023-09-30T04:55:09;8.73;;;5.63;;
64957;SDS011;51486;50.232;19.208;2023-09-30T04:57:37;17.27;;;5.70;;
64957;SDS011;51486;50.232;19.208;2023-09-30T05:00:02;14.87;;;5.93;;
64957;SDS011;51486;50.232;19.208;2023-09-30T05:02:36;10.73;;;5.83;;
64957;SDS011;51486;50.232;19.208;2023-09-30T05:05:02;11.17;;;6.33;;
64957;SDS011;51486;50.232;19.208;2023-09-30T05:07:31;18.87;;;5.50;;
64957;SDS011;51486;50.232;19.208;2023-09-30T05:09:56;10.47;;;5.57;;
64957;SDS011;51486;50.232;19.208;2023-09-30T05:12:22;15.33;;;6.47;;
64957;SDS011;51486;50.232;19.208;2023-09-30T05:14:48;31.37;;;6.77;;
64957;SDS011;51486;50.232;19.208;2023-09-30T05:17:13;10.50;;;6.43;;
64957;SDS011;51486;50.232;19.208;2023-09-30T05:19:38;13.70;;;5.77;;
64957;SDS011;51486;50.232;19.208;2023-09-30T05:22:04;7.77;;;5.33;;
64957;SDS011;51486;50.232;19.208;2023-09-30T05:24:30;13.77;;;6.83;;
64957;SDS011;51486;50.232;19.208;2023-09-30T05:26:55;13.03;;;6.30;;
64957;SDS011;51486;50.232;19.208;2023-09-30T05:29:21;21.07;;;6.83;;
64957;SDS011;51486;50.232;19.208;2023-09-30T05:31:47;10.13;;;6.27;;
64957;SDS011;51486;50.232;19.208;2023-09-30T05:34:13;11.83;;;6.00;;
64957;SDS011;51486;50.232;19.208;2023-09-30T05:36:38;13.23;;;6.23;;
64957;SDS011;51486;50.232;19.208;2023-09-30T05:39:04;13.20;;;7.00;;
64957;SDS011;51486;50.232;19.208;2023-09-30T05:41:30;14.40;;;6.23;;
64957;SDS011;51486;50.232;19.208;2023-09-30T05:43:56;13.50;;;6.30;;
64957;SDS011;51486;50.232;19.208;2023-09-30T05:46:22;40.50;;;11.43;;
64957;SDS011;51486;50.232;19.208;2023-09-30T05:48:47;29.00;;;10.73;;
64957;SDS011;51486;50.232;19.208;2023-09-30T05:51:13;21.67;;;11.27;;
64957;SDS011;51486;50.232;19.208;2023-09-30T05:53:41;24.53;;;10.87;;
64957;SDS011;51486;50.232;19.208;2023-09-30T05:56:07;38.37;;;12.27;;
64957;SDS011;51486;50.232;19.208;2023-09-30T05:58:33;30.93;;;10.80;;
64957;SDS011;51486;50.232;19.208;2023-09-30T06:00:58;26.07;;;9.47;;
64957;SDS011;51486;50.232;19.208;2023-09-30T06:03:25;27.03;;;10.47;;
64957;SDS011;51486;50.232;19.208;2023-09-30T06:05:54;49.93;;;10.03;;
64957;SDS011;51486;50.232;19.208;2023-09-30T06:08:20;24.20;;;9.07;;
64957;SDS011;51486;50.232;19.208;2023-09-30T06:10:46;18.57;;;9.13;;
64957;SDS011;51486;50.232;19.208;2023-09-30T06:13:11;14.20;;;6.67;;
64957;SDS011;51486;50.232;19.208;2023-09-30T06:15:40;14.23;;;7.63;;
64957;SDS011;51486;50.232;19.208;2023-09-30T06:18:06;26.67;;;11.10;;
64957;SDS011;51486;50.232;19.208;2023-09-30T06:20:33;19.97;;;10.60;;
64957;SDS011;51486;50.232;19.208;2023-09-30T06:22:59;36.63;;;14.07;;
64957;SDS011;51486;50.232;19.208;2023-09-30T06:25:27;21.77;;;11.63;;
64957;SDS011;51486;50.232;19.208;2023-09-30T06:27:55;18.03;;;10.30;;
64957;SDS011;51486;50.232;19.208;2023-09-30T06:30:21;12.40;;;7.30;;
64957;SDS011;51486;50.232;19.208;2023-09-30T06:32:47;11.53;;;6.70;;
64957;SDS011;51486;50.232;19.208;2023-09-30T06:35:13;10.87;;;6.23;;
64957;SDS011;51486;50.232;19.208;2023-09-30T06:37:41;12.13;;;6.67;;
64957;SDS011;51486;50.232;19.208;2023-09-30T06:40:08;17.73;;;8.00;;
64957;SDS011;51486;50.232;19.208;2023-09-30T06:42:36;21.47;;;10.30;;
64957;SDS011;51486;50.232;19.208;2023-09-30T06:45:02;17.40;;;10.03;;
64957;SDS011;51486;50.232;19.208;2023-09-30T06:47:34;16.27;;;9.90;;
64957;SDS011;51486;50.232;19.208;2023-09-30T06:50:01;19.73;;;11.00;;
64957;SDS011;51486;50.232;19.208;2023-09-30T06:52:32;20.47;;;9.60;;
64957;SDS011;51486;50.232;19.208;2023-09-30T06:55:10;21.67;;;9.73;;
64957;SDS011;51486;50.232;19.208;2023-09-30T06:57:39;15.23;;;8.10;;
64957;SDS011;51486;50.232;19.208;2023-09-30T07:00:08;14.70;;;9.17;;
64957;SDS011;51486;50.232;19.208;2023-09-30T07:02:36;27.90;;;10.17;;
64957;SDS011;51486;50.232;19.208;2023-09-30T07:05:07;18.83;;;9.63;;
64957;SDS011;51486;50.232;19.208;2023-09-30T07:07:33;22.83;;;9.43;;
64957;SDS011;51486;50.232;19.208;2023-09-30T07:09:58;18.97;;;8.83;;
64957;SDS011;51486;50.232;19.208;2023-09-30T07:12:24;12.17;;;8.10;;
64957;SDS011;51486;50.232;19.208;2023-09-30T07:14:49;13.37;;;7.53;;
64957;SDS011;51486;50.232;19.208;2023-09-30T07:17:14;9.67;;;6.17;;
64957;SDS011;51486;50.232;19.208;2023-09-30T07:19:40;16.77;;;7.27;;
64957;SDS011;51486;50.232;19.208;2023-09-30T07:22:05;8.73;;;5.17;;
64957;SDS011;51486;50.232;19.208;2023-09-30T07:24:31;14.50;;;6.67;;
64957;SDS011;51486;50.232;19.208;2023-09-30T07:26:56;8.97;;;5.57;;
64957;SDS011;51486;50.232;19.208;2023-09-30T07:29:21;10.07;;;6.90;;
64957;SDS011;51486;50.232;19.208;2023-09-30T07:31:48;17.63;;;7.77;;
64957;SDS011;51486;50.232;19.208;2023-09-30T07:34:13;24.13;;;10.90;;
64957;SDS011;51486;50.232;19.208;2023-09-30T07:36:38;43.50;;;18.87;;
64957;SDS011;51486;50.232;19.208;2023-09-30T07:39:04;45.00;;;19.43;;
64957;SDS011;51486;50.232;19.208;2023-09-30T07:41:34;22.23;;;13.17;;
64957;SDS011;51486;50.232;19.208;2023-09-30T07:43:59;17.70;;;9.20;;
64957;SDS011;51486;50.232;19.208;2023-09-30T07:46:25;15.00;;;7.97;;
64957;SDS011;51486;50.232;19.208;2023-09-30T07:48:50;11.20;;;7.30;;
64957;SDS011;51486;50.232;19.208;2023-09-30T07:51:15;8.50;;;6.03;;
64957;SDS011;51486;50.232;19.208;2023-09-30T07:53:41;10.30;;;6.53;;
64957;SDS011;51486;50.232;19.208;2023-09-30T07:56:06;11.70;;;7.30;;
64957;SDS011;51486;50.232;19.208;2023-09-30T07:58:32;20.13;;;7.00;;
64957;SDS011;51486;50.232;19.208;2023-09-30T08:00:58;9.50;;;6.23;;
64957;SDS011;51486;50.232;19.208;2023-09-30T08:03:23;10.77;;;5.87;;
64957;SDS011;51486;50.232;19.208;2023-09-30T08:05:49;9.97;;;5.80;;
64957;SDS011;51486;50.232;19.208;2023-09-30T08:08:15;9.10;;;5.13;;
64957;SDS011;51486;50.232;19.208;2023-09-30T08:10:42;18.10;;;6.80;;
64957;SDS011;51486;50.232;19.208;2023-09-30T08:13:07;8.70;;;5.33;;
64957;SDS011;51486;50.232;19.208;2023-09-30T08:15:34;7.60;;;5.07;;
64957;SDS011;51486;50.232;19.208;2023-09-30T08:18:00;12.83;;;6.17;;
64957;SDS011;51486;50.232;19.208;2023-09-30T08:20:27;13.30;;;6.47;;
64957;SDS011;51486;50.232;19.208;2023-09-30T08:22:53;12.87;;;5.50;;
64957;SDS011;51486;50.232;19.208;2023-09-30T08:25:18;13.40;;;6.13;;
64957;SDS011;51486;50.232;19.208;2023-09-30T08:27:43;10.93;;;5.83;;
64957;SDS011;51486;50.232;19.208;2023-09-30T08:30:14;10.70;;;5.43;;
64957;SDS011;51486;50.232;19.208;2023-09-30T08:32:40;13.00;;;5.83;;
64957;SDS011;51486;50.232;19.208;2023-09-30T08:35:05;12.20;;;6.03;;
64957;SDS011;51486;50.232;19.208;2023-09-30T08:37:32;10.17;;;5.47;;
64957;SDS011;51486;50.232;19.208;2023-09-30T08:39:58;7.67;;;5.00;;
64957;SDS011;51486;50.232;19.208;2023-09-30T08:42:23;10.40;;;5.67;;
64957;SDS011;51486;50.232;19.208;2023-09-30T08:44:51;13.10;;;6.20;;
64957;SDS011;51486;50.232;19.208;2023-09-30T08:47:21;10.53;;;6.07;;
64957;SDS011;51486;50.232;19.208;2023-09-30T08:49:48;10.90;;;5.93;;
64957;SDS011;51486;50.232;19.208;2023-09-30T08:52:15;16.47;;;6.40;;
64957;SDS011;51486;50.232;19.208;2023-09-30T08:54:40;11.73;;;5.33;;
64957;SDS011;51486;50.232;19.208;2023-09-30T08:57:06;12.87;;;6.30;;
64957;SDS011;51486;50.232;19.208;2023-09-30T08:59:35;13.00;;;6.10;;
64957;SDS011;51486;50.232;19.208;2023-09-30T09:02:01;12.23;;;6.47;;
64957;SDS011;51486;50.232;19.208;2023-09-30T09:04:26;10.17;;;6.00;;
64957;SDS011;51486;50.232;19.208;2023-09-30T09:06:53;24.87;;;5.97;;
64957;SDS011;51486;50.232;19.208;2023-09-30T09:09:19;9.83;;;5.10;;
64957;SDS011;51486;50.232;19.208;2023-09-30T09:11:47;12.63;;;6.23;;
64957;SDS011;51486;50.232;19.208;2023-09-30T09:14:13;15.37;;;5.70;;
64957;SDS011;51486;50.232;19.208;2023-09-30T09:16:52;8.27;;;5.53;;
64957;SDS011;51486;50.232;19.208;2023-09-30T09:19:18;10.23;;;6.10;;
64957;SDS011;51486;50.232;19.208;2023-09-30T09:21:54;13.63;;;6.13;;
64957;SDS011;51486;50.232;19.208;2023-09-30T09:24:28;13.20;;;5.80;;
64957;SDS011;51486;50.232;19.208;2023-09-30T09:27:04;14.23;;;7.00;;
64957;SDS011;51486;50.232;19.208;2023-09-30T09:29:32;15.30;;;6.63;;
64957;SDS011;51486;50.232;19.208;2023-09-30T09:32:10;12.03;;;6.53;;
64957;SDS011;51486;50.232;19.208;2023-09-30T09:34:36;14.23;;;7.27;;
64957;SDS011;51486;50.232;19.208;2023-09-30T09:37:18;12.37;;;5.43;;
64957;SDS011;51486;50.232;19.208;2023-09-30T09:39:51;12.57;;;6.30;;
64957;SDS011;51486;50.232;19.208;2023-09-30T09:42:28;11.17;;;6.30;;
64957;SDS011;51486;50.232;19.208;2023-09-30T09:44:59;11.37;;;6.43;;
64957;SDS011;51486;50.232;19.208;2023-09-30T09:47:27;10.70;;;6.67;;
64957;SDS011;51486;50.232;19.208;2023-09-30T09:49:54;11.70;;;6.60;;
64957;SDS011;51486;50.232;19.208;2023-09-30T09:52:22;11.47;;;6.40;;
64957;SDS011;51486;50.232;19.208;2023-09-30T09:54:48;10.40;;;6.40;;
64957;SDS011;51486;50.232;19.208;2023-09-30T09:57:16;11.10;;;6.37;;
64957;SDS011;51486;50.232;19.208;2023-09-30T09:59:43;19.97;;;7.47;;
64957;SDS011;51486;50.232;19.208;2023-09-30T10:02:12;18.30;;;9.43;;
64957;SDS011;51486;50.232;19.208;2023-09-30T10:04:39;12.17;;;6.97;;
64957;SDS011;51486;50.232;19.208;2023-09-30T10:07:09;12.50;;;7.43;;
64957;SDS011;51486;50.232;19.208;2023-09-30T10:09:39;17.90;;;8.63;;
64957;SDS011;51486;50.232;19.208;2023-09-30T10:12:08;19.87;;;7.40;;
64957;SDS011;51486;50.232;19.208;2023-09-30T10:14:35;14.50;;;7.00;;
64957;SDS011;51486;50.232;19.208;2023-09-30T10:17:01;13.07;;;6.90;;
64957;SDS011;51486;50.232;19.208;2023-09-30T10:19:28;13.20;;;7.43;;
64957;SDS011;51486;50.232;19.208;2023-09-30T10:24:51;18.53;;;7.53;;
64957;SDS011;51486;50.232;19.208;2023-09-30T10:35:13;17.27;;;8.57;;
64957;SDS011;51486;50.232;19.208;2023-09-30T10:37:38;17.70;;;8.20;;
64957;SDS011;51486;50.232;19.208;2023-09-30T10:40:04;14.87;;;7.97;;
64957;SDS011;51486;50.232;19.208;2023-09-30T10:42:48;22.00;;;9.23;;
64957;SDS011;51486;50.232;19.208;2023-09-30T10:50:58;9.87;;;6.30;;
64957;SDS011;51486;50.232;19.208;2023-09-30T10:53:25;12.40;;;8.33;;
64957;SDS011;51486;50.232;19.208;2023-09-30T10:55:59;20.70;;;7.37;;
64957;SDS011;51486;50.232;19.208;2023-09-30T11:01:13;12.70;;;6.57;;
64957;SDS011;51486;50.232;19.208;2023-09-30T11:03:43;10.00;;;6.73;;
64957;SDS011;51486;50.232;19.208;2023-09-30T11:06:12;12.63;;;6.83;;
64957;SDS011;51486;50.232;19.208;2023-09-30T11:08:51;11.80;;;6.63;;
64957;SDS011;51486;50.232;19.208;2023-09-30T11:11:19;12.03;;;7.23;;
64957;SDS011;51486;50.232;19.208;2023-09-30T11:13:44;11.57;;;5.70;;
64957;SDS011;51486;50.232;19.208;2023-09-30T11:16:10;9.20;;;5.87;;
64957;SDS011;51486;50.232;19.208;2023-09-30T11:18:35;11.27;;;6.17;;
64957;SDS011;51486;50.232;19.208;2023-09-30T11:21:06;11.03;;;6.23;;
64957;SDS011;51486;50.232;19.208;2023-09-30T11:23:34;10.13;;;5.83;;
64957;SDS011;51486;50.232;19.208;2023-09-30T11:26:00;9.47;;;5.60;;
64957;SDS011;51486;50.232;19.208;2023-09-30T11:28:34;12.83;;;5.60;;
64957;SDS011;51486;50.232;19.208;2023-09-30T11:31:13;18.90;;;5.90;;
64957;SDS011;51486;50.232;19.208;2023-09-30T11:33:47;8.77;;;4.53;;
64957;SDS011;51486;50.232;19.208;2023-09-30T11:36:14;12.97;;;6.27;;
64957;SDS011;51486;50.232;19.208;2023-09-30T11:38:44;13.60;;;6.23;;
64957;SDS011;51486;50.232;19.208;2023-09-30T11:41:14;13.17;;;5.37;;
64957;SDS011;51486;50.232;19.208;2023-09-30T11:43:57;10.67;;;5.60;;
64957;SDS011;51486;50.232;19.208;2023-09-30T11:46:29;7.23;;;4.87;;
64957;SDS011;51486;50.232;19.208;2023-09-30T11:48:59;9.43;;;5.30;;
64957;SDS011;51486;50.232;19.208;2023-09-30T11:51:26;8.57;;;5.60;;
64957;SDS011;51486;50.232;19.208;2023-09-30T11:53:53;9.50;;;5.47;;
64957;SDS011;51486;50.232;19.208;2023-09-30T11:56:19;20.17;;;7.77;;
64957;SDS011;51486;50.232;19.208;2023-09-30T11:58:45;15.77;;;7.10;;
64957;SDS011;51486;50.232;19.208;2023-09-30T12:01:15;9.07;;;5.70;;
64957;SDS011;51486;50.232;19.208;2023-09-30T12:03:41;9.43;;;4.83;;
64957;SDS011;51486;50.232;19.208;2023-09-30T12:06:07;7.07;;;4.07;;
64957;SDS011;51486;50.232;19.208;2023-09-30T12:08:33;9.20;;;4.20;;
64957;SDS011;51486;50.232;19.208;2023-09-30T12:10:58;5.30;;;3.40;;
64957;SDS011;51486;50.232;19.208;2023-09-30T12:13:24;8.37;;;3.93;;
64957;SDS011;51486;50.232;19.208;2023-09-30T12:15:51;4.07;;;2.70;;
64957;SDS011;51486;50.232;19.208;2023-09-30T12:18:18;6.27;;;2.97;;
64957;SDS011;51486;50.232;19.208;2023-09-30T12:20:48;4.13;;;3.10;;
64957;SDS011;51486;50.232;19.208;2023-09-30T12:23:17;5.00;;;2.17;;
64957;SDS011;51486;50.232;19.208;2023-09-30T12:25:43;5.30;;;2.47;;
64957;SDS011;51486;50.232;19.208;2023-09-30T12:28:09;3.97;;;2.37;;
64957;SDS011;51486;50.232;19.208;2023-09-30T12:30:34;5.03;;;2.20;;
64957;SDS011;51486;50.232;19.208;2023-09-30T12:33:00;5.03;;;2.30;;
64957;SDS011;51486;50.232;19.208;2023-09-30T12:35:25;3.53;;;1.90;;
64957;SDS011;51486;50.232;19.208;2023-09-30T12:37:51;9.40;;;2.63;;
64957;SDS011;51486;50.232;19.208;2023-09-30T12:40:17;5.10;;;2.90;;
64957;SDS011;51486;50.232;19.208;2023-09-30T12:42:43;5.37;;;2.40;;
64957;SDS011;51486;50.232;19.208;2023-09-30T12:45:10;8.27;;;2.77;;
64957;SDS011;51486;50.232;19.208;2023-09-30T12:47:38;6.17;;;2.70;;
64957;SDS011;51486;50.232;19.208;2023-09-30T12:50:04;4.17;;;2.20;;
64957;SDS011;51486;50.232;19.208;2023-09-30T12:52:29;7.37;;;2.90;;
64957;SDS011;51486;50.232;19.208;2023-09-30T12:54:57;21.20;;;2.67;;
64957;SDS011;51486;50.232;19.208;2023-09-30T12:57:23;6.10;;;3.10;;
64957;SDS011;51486;50.232;19.208;2023-09-30T12:59:48;4.53;;;2.53;;
64957;SDS011;51486;50.232;19.208;2023-09-30T13:02:16;5.03;;;2.37;;
64957;SDS011;51486;50.232;19.208;2023-09-30T13:04:43;10.77;;;3.20;;
64957;SDS011;51486;50.232;19.208;2023-09-30T13:07:09;5.27;;;2.10;;
64957;SDS011;51486;50.232;19.208;2023-09-30T13:09:35;5.43;;;2.83;;
64957;SDS011;51486;50.232;19.208;2023-09-30T13:12:02;5.83;;;2.93;;
64957;SDS011;51486;50.232;19.208;2023-09-30T13:14:28;3.10;;;2.20;;
64957;SDS011;51486;50.232;19.208;2023-09-30T13:16:53;8.40;;;3.03;;
64957;SDS011;51486;50.232;19.208;2023-09-30T13:19:19;5.27;;;2.73;;
64957;SDS011;51486;50.232;19.208;2023-09-30T13:21:49;7.27;;;2.80;;
64957;SDS011;51486;50.232;19.208;2023-09-30T13:24:15;3.43;;;2.27;;
64957;SDS011;51486;50.232;19.208;2023-09-30T13:26:41;5.80;;;2.13;;
64957;SDS011;51486;50.232;19.208;2023-09-30T13:29:06;6.03;;;2.83;;
64957;SDS011;51486;50.232;19.208;2023-09-30T13:31:35;4.40;;;2.43;;
64957;SDS011;51486;50.232;19.208;2023-09-30T13:34:04;5.73;;;2.73;;
64957;SDS011;51486;50.232;19.208;2023-09-30T13:36:30;2.77;;;2.07;;
64957;SDS011;51486;50.232;19.208;2023-09-30T13:38:55;9.40;;;3.03;;
64957;SDS011;51486;50.232;19.208;2023-09-30T13:41:21;3.73;;;2.03;;
64957;SDS011;51486;50.232;19.208;2023-09-30T13:43:46;5.80;;;2.33;;
64957;SDS011;51486;50.232;19.208;2023-09-30T13:46:12;3.37;;;2.03;;
64957;SDS011;51486;50.232;19.208;2023-09-30T13:48:37;3.83;;;2.17;;
64957;SDS011;51486;50.232;19.208;2023-09-30T13:51:06;4.80;;;2.20;;
64957;SDS011;51486;50.232;19.208;2023-09-30T13:53:32;12.90;;;2.13;;
64957;SDS011;51486;50.232;19.208;2023-09-30T13:55:58;4.07;;;2.07;;
64957;SDS011;51486;50.232;19.208;2023-09-30T13:58:23;3.27;;;1.90;;
64957;SDS011;51486;50.232;19.208;2023-09-30T14:00:49;7.93;;;2.30;;
64957;SDS011;51486;50.232;19.208;2023-09-30T14:03:17;8.47;;;2.87;;
64957;SDS011;51486;50.232;19.208;2023-09-30T14:05:44;3.10;;;1.73;;
64957;SDS011;51486;50.232;19.208;2023-09-30T14:08:10;6.00;;;2.33;;
64957;SDS011;51486;50.232;19.208;2023-09-30T14:10:36;3.57;;;2.17;;
64957;SDS011;51486;50.232;19.208;2023-09-30T14:13:02;4.67;;;2.23;;
64957;SDS011;51486;50.232;19.208;2023-09-30T14:15:28;6.67;;;2.77;;
64957;SDS011;51486;50.232;19.208;2023-09-30T14:17:56;5.00;;;2.77;;
64957;SDS011;51486;50.232;19.208;2023-09-30T14:20:24;3.53;;;2.27;;
64957;SDS011;51486;50.232;19.208;2023-09-30T14:22:50;4.97;;;2.10;;
64957;SDS011;51486;50.232;19.208;2023-09-30T14:25:20;3.37;;;2.17;;
64957;SDS011;51486;50.232;19.208;2023-09-30T14:27:46;9.40;;;2.97;;
64957;SDS011;51486;50.232;19.208;2023-09-30T14:30:12;3.30;;;2.30;;
64957;SDS011;51486;50.232;19.208;2023-09-30T14:32:38;8.20;;;2.70;;
64957;SDS011;51486;50.232;19.208;2023-09-30T14:35:05;2.47;;;1.80;;
64957;SDS011;51486;50.232;19.208;2023-09-30T14:37:31;2.80;;;2.00;;
64957;SDS011;51486;50.232;19.208;2023-09-30T14:39:56;3.60;;;2.00;;
64957;SDS011;51486;50.232;19.208;2023-09-30T14:42:22;2.67;;;1.77;;